createdAt,value
2023-03-21T00:01:16.710Z,8.78
2023-03-21T00:03:48.271Z,8.79
2023-03-21T00:06:16.741Z,8.78
2023-03-21T00:08:45.233Z,8.74
2023-03-21T00:11:14.391Z,8.74
2023-03-21T00:13:43.685Z,8.74
2023-03-21T00:16:20.057Z,8.71
2023-03-21T00:18:55.519Z,8.70
2023-03-21T00:24:17.215Z,8.71
2023-03-21T00:26:46.230Z,8.72
2023-03-21T00:29:14.718Z,8.75
2023-03-21T00:31:43.112Z,8.76
2023-03-21T00:36:41.287Z,8.75
2023-03-21T00:39:10.195Z,8.71
2023-03-21T00:41:42.819Z,8.71
2023-03-21T00:44:14.006Z,8.69
2023-03-21T00:46:54.164Z,8.71
2023-03-21T00:49:27.858Z,8.72
2023-03-21T00:51:59.584Z,8.73
2023-03-21T00:54:33.906Z,8.71
2023-03-21T00:57:03.118Z,8.69
2023-03-21T00:59:31.773Z,8.68
2023-03-21T01:02:01.180Z,8.67
2023-03-21T01:04:31.354Z,8.68
2023-03-21T01:06:59.839Z,8.67
2023-03-21T01:09:28.252Z,8.67
2023-03-21T01:11:56.758Z,8.69
2023-03-21T01:14:25.627Z,8.68
2023-03-21T01:16:54.654Z,8.69
2023-03-21T01:19:48.404Z,8.72
2023-03-21T01:22:19.420Z,8.70
2023-03-21T01:24:55.417Z,8.72
2023-03-21T01:27:26.897Z,8.72
2023-03-21T01:29:55.325Z,8.71
2023-03-21T01:32:23.800Z,8.74
2023-03-21T01:34:53.814Z,8.76
2023-03-21T01:37:22.950Z,8.77
2023-03-21T01:39:51.814Z,8.76
2023-03-21T01:42:20.375Z,8.75
2023-03-21T01:45:00.363Z,8.76
2023-03-21T01:47:30.396Z,8.73
2023-03-21T01:50:02.453Z,8.73
2023-03-21T01:52:37.486Z,8.75
2023-03-21T01:55:12.044Z,8.75
2023-03-21T01:58:02.065Z,8.76
2023-03-21T02:00:34.201Z,8.77
2023-03-21T02:03:13.573Z,8.78
2023-03-21T02:05:53.743Z,8.82
2023-03-21T02:08:30.539Z,8.84
2023-03-21T02:11:07.399Z,8.84
2023-03-21T02:13:36.575Z,8.87
2023-03-21T02:16:14.115Z,8.88
2023-03-21T02:18:47.896Z,8.91
2023-03-21T02:21:49.561Z,8.92
2023-03-21T02:24:42.680Z,8.95
2023-03-21T02:31:38.713Z,8.97
2023-03-21T02:36:53.305Z,8.95
2023-03-21T02:43:07.167Z,9.02
2023-03-21T02:46:10.659Z,9.03
2023-03-21T02:50:49.289Z,9.01
2023-03-21T02:52:48.924Z,8.99
2023-03-21T02:56:05.608Z,8.94
2023-03-21T02:59:31.941Z,8.90
2023-03-21T03:02:44.642Z,8.89
2023-03-21T03:05:41.684Z,8.85
2023-03-21T03:08:41.245Z,8.84
2023-03-21T03:16:02.526Z,8.81
2023-03-21T03:23:08.253Z,8.77
2023-03-21T03:27:49.405Z,8.78
2023-03-21T03:29:23.722Z,8.76
2023-03-21T03:32:08.018Z,8.74
2023-03-21T03:35:40.416Z,8.74
2023-03-21T03:39:12.388Z,8.76
2023-03-21T03:42:42.815Z,8.78
2023-03-21T03:45:54.455Z,8.77
2023-03-21T03:59:40.862Z,8.78
2023-03-21T04:03:11.301Z,8.76
2023-03-21T04:06:18.395Z,8.74
2023-03-21T04:09:20.467Z,8.73
2023-03-21T04:12:14.553Z,8.74
2023-03-21T04:15:10.242Z,8.73
2023-03-21T04:18:11.419Z,8.71
2023-03-21T04:21:25.573Z,8.73
2023-03-21T04:24:50.682Z,8.71
2023-03-21T04:27:31.281Z,8.70
2023-03-21T04:30:28.803Z,8.67
2023-03-21T04:33:11.046Z,8.66
2023-03-21T04:35:49.676Z,8.62
2023-03-21T04:38:40.875Z,8.61
2023-03-21T04:41:37.966Z,8.61
2023-03-21T04:44:59.034Z,8.61
2023-03-21T04:48:00.792Z,8.62
2023-03-21T04:50:45.367Z,8.64
2023-03-21T04:56:35.252Z,8.66
2023-03-21T04:59:53.870Z,8.66
2023-03-21T05:02:56.571Z,8.69
2023-03-21T05:05:47.972Z,8.68
2023-03-21T05:08:45.280Z,8.65
2023-03-21T05:11:42.605Z,8.63
2023-03-21T05:14:36.247Z,8.59
2023-03-21T05:17:23.506Z,8.57
2023-03-21T05:20:00.909Z,8.58
2023-03-21T05:22:57.179Z,8.60
2023-03-21T05:25:37.165Z,8.62
2023-03-21T05:28:48.310Z,8.63
2023-03-21T05:34:35.898Z,8.65
2023-03-21T05:37:26.548Z,8.68
2023-03-21T05:40:19.834Z,8.69
2023-03-21T05:43:21.802Z,8.73
2023-03-21T05:47:38.161Z,8.74
2023-03-21T05:50:18.675Z,8.79
2023-03-21T05:54:00.947Z,8.82
2023-03-21T06:00:06.392Z,8.83
2023-03-21T06:03:13.149Z,8.87
2023-03-21T06:06:55.429Z,8.90
2023-03-21T06:13:28.649Z,9.00
2023-03-21T06:16:32.927Z,9.05
2023-03-21T06:20:14.036Z,9.06
2023-03-21T06:26:39.635Z,9.06
2023-03-21T06:37:36.799Z,9.07
2023-03-21T06:44:24.446Z,9.19
2023-03-21T06:47:30.287Z,9.22
2023-03-21T06:53:28.769Z,9.29
2023-03-21T06:56:06.506Z,9.32
2023-03-21T06:58:40.084Z,9.36
2023-03-21T07:01:12.037Z,9.41
2023-03-21T07:05:03.681Z,9.49
2023-03-21T07:07:04.354Z,9.54
2023-03-21T07:09:34.172Z,9.54
2023-03-21T07:12:02.614Z,9.53
2023-03-21T07:14:32.232Z,9.54
2023-03-21T07:17:00.716Z,9.56
2023-03-21T07:19:30.205Z,9.55
2023-03-21T07:21:58.711Z,9.61
2023-03-21T07:24:27.530Z,9.70
2023-03-21T07:26:57.575Z,9.77
2023-03-21T07:29:25.963Z,9.84
2023-03-21T07:31:54.319Z,9.86
2023-03-21T07:34:22.625Z,9.86
2023-03-21T07:36:50.993Z,9.83
2023-03-21T07:39:20.710Z,9.85
2023-03-21T07:41:49.023Z,9.90
2023-03-21T07:44:18.964Z,9.93
2023-03-21T07:46:47.373Z,9.96
2023-03-21T07:49:15.753Z,9.95
2023-03-21T07:51:44.226Z,9.92
2023-03-21T07:54:12.563Z,9.93
2023-03-21T07:56:43.018Z,9.94
2023-03-21T07:59:11.656Z,9.94
2023-03-21T08:01:41.549Z,9.90
2023-03-21T08:04:12.982Z,9.85
2023-03-21T08:06:42.836Z,9.84
2023-03-21T08:09:11.788Z,9.82
2023-03-21T08:11:41.370Z,9.82
2023-03-21T08:14:09.861Z,9.85
2023-03-21T08:16:38.452Z,9.90
2023-03-21T08:19:10.386Z,9.92
2023-03-21T08:21:39.582Z,9.92
2023-03-21T08:24:08.844Z,9.94
2023-03-21T08:26:37.532Z,9.94
2023-03-21T08:30:19.553Z,9.94
2023-03-21T08:32:45.161Z,9.97
2023-03-21T08:35:18.802Z,9.94
2023-03-21T08:37:47.295Z,9.91
2023-03-21T08:40:18.185Z,9.90
2023-03-21T08:42:47.653Z,9.91
2023-03-21T08:45:19.392Z,9.95
2023-03-21T08:47:48.632Z,9.96
2023-03-21T08:50:21.876Z,9.95
2023-03-21T08:52:53.622Z,9.98
2023-03-21T08:55:29.916Z,10.01
2023-03-21T08:58:00.814Z,10.03
2023-03-21T09:00:35.236Z,10.05
2023-03-21T09:03:30.548Z,10.04
2023-03-21T09:06:02.993Z,10.09
2023-03-21T09:08:33.137Z,10.12
2023-03-21T09:11:07.276Z,10.14
2023-03-21T09:13:36.244Z,10.17
2023-03-21T09:16:06.472Z,10.15
2023-03-21T09:18:47.458Z,10.18
2023-03-21T09:21:19.774Z,10.22
2023-03-21T09:23:49.025Z,10.25
2023-03-21T09:26:21.701Z,10.27
2023-03-21T09:28:50.993Z,10.25
2023-03-21T09:31:21.988Z,10.26
2023-03-21T09:33:53.581Z,10.31
2023-03-21T09:36:25.415Z,10.36
2023-03-21T09:38:54.789Z,10.37
2023-03-21T09:41:49.253Z,10.39
2023-03-21T09:44:33.112Z,10.44
2023-03-21T09:47:14.108Z,10.48
2023-03-21T09:49:48.610Z,10.47
2023-03-21T09:52:37.779Z,10.48
2023-03-21T09:55:21.082Z,10.49
2023-03-21T09:57:53.063Z,10.51
2023-03-21T10:00:33.193Z,10.55
2023-03-21T10:03:08.196Z,10.58
2023-03-21T10:05:40.556Z,10.59
2023-03-21T10:08:16.302Z,10.63
2023-03-21T10:10:50.532Z,10.65
2023-03-21T10:13:22.454Z,10.66
2023-03-21T10:15:51.261Z,10.70
2023-03-21T10:18:23.800Z,10.73
2023-03-21T10:20:52.831Z,10.70
2023-03-21T10:23:26.891Z,10.69
2023-03-21T10:25:58.603Z,10.71
2023-03-21T10:28:32.702Z,10.73
2023-03-21T10:31:08.262Z,10.73
2023-03-21T10:33:38.527Z,10.70
2023-03-21T10:36:09.719Z,10.72
2023-03-21T10:38:50.664Z,10.74
2023-03-21T10:41:20.773Z,10.76
2023-03-21T10:44:41.674Z,10.80
2023-03-21T10:47:29.744Z,10.88
2023-03-21T10:50:51.315Z,10.88
2023-03-21T10:56:35.803Z,10.90
2023-03-21T10:59:13.271Z,10.91
2023-03-21T11:02:10.756Z,10.88
2023-03-21T11:07:46.846Z,10.88
2023-03-21T11:10:30.811Z,10.89
2023-03-21T11:13:15.333Z,10.93
2023-03-21T11:16:25.960Z,10.91
2023-03-21T11:22:10.139Z,10.91
2023-03-21T11:24:59.028Z,10.95
2023-03-21T11:27:29.789Z,10.99
2023-03-21T11:30:04.300Z,11.05
2023-03-21T11:32:37.389Z,11.14
2023-03-21T11:35:09.495Z,11.18
2023-03-21T11:37:57.990Z,11.26
2023-03-21T11:40:53.199Z,11.30
2023-03-21T11:43:52.449Z,11.37
2023-03-21T11:46:44.780Z,11.38
2023-03-21T11:49:25.340Z,11.35
2023-03-21T11:52:08.936Z,11.32
2023-03-21T11:54:55.370Z,11.28
2023-03-21T11:58:02.729Z,11.31
2023-03-21T12:00:57.723Z,11.29
2023-03-21T12:03:56.666Z,11.30
2023-03-21T12:06:31.559Z,11.35
2023-03-21T12:09:14.203Z,11.36
2023-03-21T12:11:50.657Z,11.41
2023-03-21T12:14:26.200Z,11.39
2023-03-21T12:17:06.756Z,11.38
2023-03-21T12:19:49.305Z,11.32
2023-03-21T12:22:25.090Z,11.25
2023-03-21T12:24:56.690Z,11.20
2023-03-21T12:27:36.605Z,11.23
2023-03-21T12:30:25.018Z,11.23
2023-03-21T12:33:13.734Z,11.30
2023-03-21T12:36:03.184Z,11.37
2023-03-21T12:38:41.187Z,11.43
2023-03-21T12:41:28.819Z,11.53
2023-03-21T12:44:12.958Z,11.53
2023-03-21T12:46:46.283Z,11.54
2023-03-21T12:49:18.106Z,11.50
2023-03-21T12:51:49.730Z,11.52
2023-03-21T12:54:25.807Z,11.52
2023-03-21T12:56:56.739Z,11.50
2023-03-21T12:59:33.095Z,11.50
2023-03-21T13:02:05.391Z,11.49
2023-03-21T13:04:40.522Z,11.45
2023-03-21T13:07:14.165Z,11.44
2023-03-21T13:09:42.989Z,11.42
2023-03-21T13:12:50.499Z,11.39
2023-03-21T13:15:35.302Z,11.35
2023-03-21T13:18:13.870Z,11.34
2023-03-21T13:20:48.805Z,11.38
2023-03-21T13:23:19.037Z,11.38
2023-03-21T13:25:48.933Z,11.38
2023-03-21T13:28:21.576Z,11.40
2023-03-21T13:30:50.431Z,11.40
2023-03-21T13:33:24.081Z,11.44
2023-03-21T13:36:01.210Z,11.46
2023-03-21T13:38:33.422Z,11.45
2023-03-21T13:41:06.843Z,11.45
2023-03-21T13:43:45.238Z,11.45
2023-03-21T13:46:15.337Z,11.47
2023-03-21T13:48:58.064Z,11.55
2023-03-21T13:51:52.820Z,11.58
2023-03-21T13:54:30.008Z,11.62
2023-03-21T13:57:01.426Z,11.67
2023-03-21T13:59:42.181Z,11.72
2023-03-21T14:02:34.745Z,11.77
2023-03-21T14:05:07.804Z,11.82
2023-03-21T14:07:42.709Z,11.88
2023-03-21T14:10:22.010Z,11.89
2023-03-21T14:12:50.900Z,11.87
2023-03-21T14:15:23.218Z,11.84
2023-03-21T14:17:55.141Z,11.80
2023-03-21T14:20:33.387Z,11.77
2023-03-21T14:23:01.868Z,11.72
2023-03-21T14:25:50.248Z,11.66
2023-03-21T14:28:46.050Z,11.60
2023-03-21T14:31:23.870Z,11.55
2023-03-21T14:34:00.413Z,11.59
2023-03-21T14:36:31.280Z,11.60
2023-03-21T14:39:08.447Z,11.65
2023-03-21T14:42:14.345Z,11.68
2023-03-21T14:44:54.515Z,11.75
2023-03-21T14:47:47.737Z,11.78
2023-03-21T14:50:16.927Z,11.82
2023-03-21T14:52:48.916Z,11.81
2023-03-21T14:55:21.436Z,11.74
2023-03-21T14:57:52.776Z,11.68
2023-03-21T15:00:32.740Z,11.62
2023-03-21T15:03:21.717Z,11.58
2023-03-21T15:06:14.497Z,11.64
2023-03-21T15:09:01.605Z,11.65
2023-03-21T15:11:38.607Z,11.62
2023-03-21T15:14:23.311Z,11.56
2023-03-21T15:16:52.649Z,11.52
2023-03-21T15:19:26.935Z,11.47
2023-03-21T15:22:26.672Z,11.44
2023-03-21T15:24:55.114Z,11.43
2023-03-21T15:27:28.420Z,11.43
2023-03-21T15:31:08.167Z,11.41
2023-03-21T15:33:22.003Z,11.38
2023-03-21T15:36:04.048Z,11.39
2023-03-21T15:38:45.554Z,11.40
2023-03-21T15:41:32.603Z,11.38
2023-03-21T15:44:16.147Z,11.34
2023-03-21T15:47:17.406Z,11.29
2023-03-21T15:50:01.391Z,11.22
2023-03-21T15:55:58.649Z,11.20
2023-03-21T15:58:40.838Z,11.20
2023-03-21T16:04:29.016Z,11.17
2023-03-21T16:07:07.419Z,11.19
2023-03-21T16:09:51.453Z,11.20
2023-03-21T16:12:20.188Z,11.22
2023-03-21T16:14:52.375Z,11.18
2023-03-21T16:17:38.739Z,11.16
2023-03-21T16:20:20.045Z,11.18
2023-03-21T16:23:02.997Z,11.18
2023-03-21T16:25:42.633Z,11.18
2023-03-21T16:28:21.375Z,11.18
2023-03-21T16:30:58.092Z,11.19
2023-03-21T16:33:28.445Z,11.17
2023-03-21T16:36:14.855Z,11.17
2023-03-21T16:38:47.742Z,11.16
2023-03-21T16:41:19.793Z,11.12
2023-03-21T16:43:53.889Z,11.10
2023-03-21T16:46:26.703Z,11.07
2023-03-21T16:49:05.689Z,11.07
2023-03-21T16:52:08.956Z,11.00
2023-03-21T16:54:39.598Z,10.96
2023-03-21T16:57:42.941Z,10.92
2023-03-21T17:00:55.610Z,10.89
2023-03-21T17:05:14.028Z,10.85
2023-03-21T17:08:23.049Z,10.85
2023-03-21T17:14:21.654Z,10.85
2023-03-21T17:17:33.316Z,10.82
2023-03-21T17:20:32.746Z,10.78
2023-03-21T17:23:08.029Z,10.77
2023-03-21T17:26:20.401Z,10.72
2023-03-21T17:29:28.383Z,10.74
2023-03-21T17:32:35.386Z,10.74
2023-03-21T17:35:28.462Z,10.78
2023-03-21T17:38:21.499Z,10.80
2023-03-21T17:41:13.310Z,10.80
2023-03-21T17:44:17.893Z,10.81
2023-03-21T17:46:57.357Z,10.83
2023-03-21T17:50:11.695Z,10.82
2023-03-21T17:54:56.444Z,10.79
2023-03-21T17:56:46.555Z,10.75
2023-03-21T17:59:47.054Z,10.73
2023-03-21T18:02:26.936Z,10.72
2023-03-21T18:05:26.527Z,10.69
2023-03-21T18:08:11.908Z,10.68
2023-03-21T18:11:18.272Z,10.65
2023-03-21T18:14:40.452Z,10.63
2023-03-21T18:18:30.044Z,10.58
2023-03-21T18:20:52.606Z,10.54
2023-03-21T18:27:03.588Z,10.49
2023-03-21T18:30:44.349Z,10.47
2023-03-21T18:33:40.956Z,10.45
2023-03-21T18:36:39.356Z,10.45
2023-03-21T18:39:30.256Z,10.41
2023-03-21T18:42:23.554Z,10.37
2023-03-21T18:45:17.269Z,10.36
2023-03-21T18:48:05.177Z,10.36
2023-03-21T18:51:36.816Z,10.33
2023-03-21T18:54:28.169Z,10.32
2023-03-21T18:57:36.204Z,10.28
2023-03-21T19:00:44.253Z,10.26
2023-03-21T19:04:22.964Z,10.25
2023-03-21T19:07:23.107Z,10.22
2023-03-21T19:10:17.006Z,10.20
2023-03-21T19:13:14.653Z,10.19
2023-03-21T19:16:11.122Z,10.17
2023-03-21T19:19:03.695Z,10.14
2023-03-21T19:22:07.489Z,10.13
2023-03-21T19:25:21.671Z,10.11
2023-03-21T19:28:01.798Z,10.10
2023-03-21T19:30:54.842Z,10.08
2023-03-21T19:34:22.868Z,10.05
2023-03-21T19:37:10.366Z,10.05
2023-03-21T19:39:52.254Z,10.05
2023-03-21T19:43:06.266Z,10.03
2023-03-21T19:45:36.594Z,10.09
2023-03-21T19:48:12.292Z,10.11
2023-03-21T19:54:15.611Z,10.21
2023-03-21T19:56:51.316Z,10.23
2023-03-21T19:59:57.002Z,10.25
2023-03-21T20:02:35.669Z,10.28
2023-03-21T20:05:32.817Z,10.28
2023-03-21T20:08:24.906Z,10.30
2023-03-21T20:11:05.723Z,10.31
2023-03-21T20:13:53.648Z,10.33
2023-03-21T20:23:49.244Z,10.40
2023-03-21T20:26:48.913Z,10.41
2023-03-21T20:33:52.706Z,10.40
2023-03-21T20:39:22.551Z,10.41
2023-03-21T20:41:56.445Z,10.39
2023-03-21T20:45:21.569Z,10.37
2023-03-21T20:48:53.516Z,10.38
2023-03-21T20:52:45.984Z,10.37
2023-03-21T20:54:39.535Z,10.37
2023-03-21T20:58:19.487Z,10.36
2023-03-21T21:02:08.366Z,10.37
2023-03-21T21:08:50.161Z,10.40
2023-03-21T21:12:06.644Z,10.40
2023-03-21T21:15:04.226Z,10.40
2023-03-21T21:18:27.645Z,10.41
2023-03-21T21:21:35.602Z,10.43
2023-03-21T21:28:39.128Z,10.47
2023-03-21T21:35:09.630Z,10.48
2023-03-21T21:43:37.895Z,10.51
2023-03-21T21:49:50.844Z,10.52
2023-03-21T21:57:12.735Z,10.55
2023-03-21T22:00:34.468Z,10.55
2023-03-21T22:03:12.199Z,10.57
2023-03-21T22:06:24.289Z,10.57
2023-03-21T22:09:03.422Z,10.61
2023-03-21T22:12:00.635Z,10.61
2023-03-21T22:28:03.182Z,10.64
2023-03-21T22:29:14.046Z,10.62
2023-03-21T22:33:08.417Z,10.63
2023-03-21T22:35:30.667Z,10.64
2023-03-21T22:38:35.289Z,10.63
2023-03-21T22:42:09.790Z,10.64
2023-03-21T22:45:23.945Z,10.68
2023-03-21T22:48:17.180Z,10.70
2023-03-21T22:51:00.602Z,10.70
2023-03-21T22:53:51.715Z,10.70
2023-03-21T23:00:36.625Z,10.70
2023-03-21T23:02:49.579Z,10.71
2023-03-21T23:05:56.337Z,10.73
2023-03-21T23:08:39.302Z,10.70
2023-03-21T23:11:23.161Z,10.71
2023-03-21T23:14:17.442Z,10.69
2023-03-21T23:16:53.706Z,10.65
2023-03-21T23:19:29.252Z,10.60
2023-03-21T23:22:17.039Z,10.52
2023-03-21T23:24:59.446Z,10.47
2023-03-21T23:27:55.918Z,10.39
2023-03-21T23:30:43.129Z,10.32
2023-03-21T23:33:26.425Z,10.25
2023-03-21T23:39:29.969Z,10.14
2023-03-21T23:42:09.665Z,10.10
2023-03-21T23:45:05.713Z,10.04
2023-03-21T23:49:21.407Z,10.00
2023-03-21T23:50:42.622Z,9.98
2023-03-21T23:53:27.865Z,9.92
2023-03-21T23:55:59.109Z,9.91
2023-03-21T23:58:29.966Z,9.89
